createdAt,value
2023-01-21T00:02:36.812Z,1.41
2023-01-21T00:07:38.610Z,1.41
2023-01-21T00:12:40.166Z,1.57
2023-01-21T00:17:43.992Z,1.75
2023-01-21T00:22:45.815Z,1.64
2023-01-21T00:27:47.992Z,1.36
2023-01-21T00:32:49.667Z,1.46
2023-01-21T00:37:52.145Z,1.48
2023-01-21T00:42:53.917Z,1.37
2023-01-21T00:47:55.528Z,1.38
2023-01-21T00:52:57.155Z,1.22
2023-01-21T00:57:58.752Z,1.16
2023-01-21T01:03:00.562Z,1.18
2023-01-21T01:08:02.238Z,1.21
2023-01-21T01:13:03.872Z,1.13
2023-01-21T01:18:05.574Z,1.16
2023-01-21T01:23:07.185Z,1.06
2023-01-21T01:28:08.924Z,1.04
2023-01-21T01:33:10.824Z,1.00
2023-01-21T01:38:13.876Z,1.05
2023-01-21T01:43:21.342Z,0.98
2023-01-21T01:48:28.539Z,1.08
2023-01-21T01:53:31.773Z,1.23
2023-01-21T01:58:33.826Z,1.33
2023-01-21T02:03:46.035Z,1.37
2023-01-21T02:08:47.915Z,1.36
2023-01-21T02:13:56.308Z,1.37
2023-01-21T02:19:28.865Z,1.38
2023-01-21T02:24:39.204Z,1.40
2023-01-21T02:30:12.927Z,1.44
2023-01-21T02:35:34.769Z,1.17
2023-01-21T02:40:57.478Z,1.09
2023-01-21T02:46:17.119Z,1.09
2023-01-21T02:51:20.341Z,1.06
2023-01-21T02:56:26.640Z,1.06
2023-01-21T03:01:59.424Z,1.06
2023-01-21T03:07:10.119Z,0.90
2023-01-21T03:12:35.311Z,0.92
2023-01-21T03:17:53.549Z,0.95
2023-01-21T03:23:01.393Z,0.78
2023-01-21T03:28:08.133Z,0.75
2023-01-21T03:33:12.933Z,0.74
2023-01-21T03:38:21.906Z,0.70
2023-01-21T03:43:23.680Z,0.61
2023-01-21T03:48:32.955Z,0.62
2023-01-21T03:53:34.676Z,0.64
2023-01-21T03:58:36.401Z,0.71
2023-01-21T04:03:38.137Z,0.74
2023-01-21T04:08:39.824Z,0.72
2023-01-21T04:13:41.814Z,0.38
2023-01-21T04:18:43.442Z,0.48
2023-01-21T04:23:45.139Z,0.67
2023-01-21T04:28:46.818Z,0.43
2023-01-21T04:33:48.452Z,0.27
2023-01-21T04:38:50.162Z,0.69
2023-01-21T04:43:51.907Z,0.86
2023-01-21T04:48:53.580Z,0.83
2023-01-21T04:53:55.265Z,0.84
2023-01-21T04:58:56.924Z,1.02
2023-01-21T05:03:58.638Z,1.01
2023-01-21T05:09:00.285Z,0.99
2023-01-21T05:14:01.972Z,1.09
2023-01-21T05:19:03.853Z,1.14
2023-01-21T05:24:05.809Z,1.19
2023-01-21T05:29:07.526Z,1.18
2023-01-21T05:34:10.758Z,1.25
2023-01-21T05:39:12.397Z,1.20
2023-01-21T05:44:15.584Z,1.27
2023-01-21T05:49:19.761Z,1.26
2023-01-21T05:54:21.472Z,1.15
2023-01-21T05:59:23.149Z,1.21
2023-01-21T06:04:30.508Z,1.27
2023-01-21T06:09:32.165Z,1.12
2023-01-21T06:14:34.035Z,1.24
2023-01-21T06:19:35.787Z,1.23
2023-01-21T06:24:39.936Z,1.19
2023-01-21T06:29:41.629Z,1.18
2023-01-21T06:34:45.786Z,1.25
2023-01-21T06:39:48.366Z,1.26
2023-01-21T06:44:50.178Z,1.29
2023-01-21T06:49:51.854Z,1.23
2023-01-21T06:54:53.559Z,1.22
2023-01-21T06:59:55.396Z,1.13
2023-01-21T07:04:59.032Z,1.17
2023-01-21T07:10:00.948Z,1.23
2023-01-21T07:15:02.779Z,1.32
2023-01-21T07:20:05.572Z,1.26
2023-01-21T07:25:07.974Z,1.31
2023-01-21T07:30:20.115Z,1.23
2023-01-21T07:35:21.803Z,1.29
2023-01-21T07:40:23.431Z,1.38
2023-01-21T07:45:25.725Z,1.17
2023-01-21T07:50:27.713Z,1.23
2023-01-21T07:55:30.041Z,1.35
2023-01-21T08:00:31.875Z,1.36
2023-01-21T08:05:33.671Z,1.30
2023-01-21T08:10:35.442Z,1.12
2023-01-21T08:15:37.771Z,1.02
2023-01-21T08:20:39.515Z,1.08
2023-01-21T08:25:43.834Z,0.93
2023-01-21T08:30:45.601Z,0.81
2023-01-21T08:35:47.527Z,0.67
2023-01-21T08:40:49.199Z,0.99
2023-01-21T08:45:51.152Z,1.04
2023-01-21T08:50:52.983Z,1.00
2023-01-21T08:55:59.168Z,1.05
2023-01-21T09:01:08.285Z,1.22
2023-01-21T09:06:11.336Z,1.10
2023-01-21T09:11:13.007Z,0.82
2023-01-21T09:16:20.325Z,0.97
2023-01-21T09:21:22.179Z,1.14
2023-01-21T09:26:25.314Z,0.91
2023-01-21T09:31:29.032Z,0.94
2023-01-21T09:36:33.367Z,1.04
2023-01-21T09:41:38.212Z,1.17
2023-01-21T09:47:15.107Z,1.34
2023-01-21T09:52:41.526Z,1.56
2023-01-21T09:57:53.075Z,1.48
2023-01-21T10:03:21.595Z,1.34
2023-01-21T10:08:46.770Z,1.20
2023-01-21T10:14:00.594Z,1.33
2023-01-21T10:19:04.547Z,1.35
2023-01-21T10:24:17.183Z,1.62
2023-01-21T10:29:21.612Z,1.63
2023-01-21T10:34:23.594Z,1.70
2023-01-21T10:39:29.136Z,1.64
2023-01-21T10:44:48.982Z,1.57
2023-01-21T10:50:11.694Z,1.64
2023-01-21T10:55:21.945Z,1.65
2023-01-21T11:00:32.652Z,1.73
2023-01-21T11:05:35.260Z,1.64
2023-01-21T11:10:36.942Z,1.82
2023-01-21T11:15:46.460Z,1.64
2023-01-21T11:20:48.271Z,1.62
2023-01-21T11:25:50.073Z,1.72
2023-01-21T11:31:06.743Z,1.92
2023-01-21T11:36:14.812Z,2.09
2023-01-21T11:41:21.979Z,2.24
2023-01-21T11:46:28.939Z,2.16
2023-01-21T11:51:30.798Z,2.13
2023-01-21T11:56:32.612Z,2.26
2023-01-21T12:01:34.426Z,2.09
2023-01-21T12:06:37.738Z,2.22
2023-01-21T12:11:39.411Z,2.22
2023-01-21T12:17:05.533Z,2.20
2023-01-21T12:22:24.727Z,2.37
2023-01-21T12:27:51.203Z,2.56
2023-01-21T12:32:58.582Z,2.66
2023-01-21T12:38:33.595Z,2.80
2023-01-21T12:43:43.332Z,2.61
2023-01-21T12:48:49.091Z,2.66
2023-01-21T12:53:57.372Z,2.58
2023-01-21T12:59:04.777Z,2.86
2023-01-21T13:04:29.978Z,2.76
2023-01-21T13:09:51.576Z,2.80
2023-01-21T13:15:01.914Z,2.98
2023-01-21T13:20:19.123Z,2.82
2023-01-21T13:25:26.251Z,3.09
2023-01-21T13:30:35.284Z,3.13
2023-01-21T13:35:43.367Z,3.18
2023-01-21T13:40:54.921Z,3.15
2023-01-21T13:46:05.733Z,2.97
2023-01-21T13:51:07.571Z,2.96
2023-01-21T13:56:09.177Z,2.83
2023-01-21T14:01:22.113Z,2.89
2023-01-21T14:06:32.301Z,2.77
2023-01-21T14:11:39.578Z,2.69
2023-01-21T14:17:29.472Z,2.65
2023-01-21T14:23:04.930Z,2.73
2023-01-21T14:28:18.866Z,2.87
2023-01-21T14:33:26.708Z,2.74
2023-01-21T14:39:02.588Z,2.73
2023-01-21T14:44:04.439Z,3.38
2023-01-21T14:49:08.984Z,3.07
2023-01-21T14:54:17.019Z,2.94
2023-01-21T14:59:39.110Z,2.90
2023-01-21T15:04:54.272Z,2.92
2023-01-21T15:09:58.874Z,2.93
2023-01-21T15:15:35.031Z,2.56
2023-01-21T15:20:44.337Z,2.55
2023-01-21T15:26:17.126Z,2.46
2023-01-21T15:31:21.132Z,2.48
2023-01-21T15:36:38.696Z,2.42
2023-01-21T15:41:59.948Z,2.18
2023-01-21T15:47:39.252Z,2.31
2023-01-21T15:53:09.704Z,2.06
2023-01-21T15:58:32.503Z,2.13
2023-01-21T16:04:06.428Z,2.18
2023-01-21T16:09:11.911Z,2.17
2023-01-21T16:14:38.857Z,2.38
2023-01-21T16:19:46.787Z,2.33
2023-01-21T16:24:54.002Z,2.26
2023-01-21T16:30:01.072Z,2.22
2023-01-21T16:35:03.258Z,2.33
2023-01-21T16:40:23.954Z,2.36
2023-01-21T16:45:26.193Z,2.35
2023-01-21T16:50:30.720Z,2.11
2023-01-21T16:55:32.540Z,1.97
2023-01-21T17:00:34.383Z,2.09
2023-01-21T17:05:40.351Z,2.07
2023-01-21T17:11:03.941Z,2.15
2023-01-21T17:16:07.413Z,2.21
2023-01-21T17:21:14.329Z,1.96
2023-01-21T17:26:20.538Z,1.98
2023-01-21T17:31:30.030Z,2.06
2023-01-21T17:36:37.960Z,1.91
2023-01-21T17:41:43.406Z,1.94
2023-01-21T17:46:48.555Z,1.98
2023-01-21T17:51:52.431Z,1.78
2023-01-21T17:56:58.833Z,1.76
2023-01-21T18:02:05.596Z,1.92
2023-01-21T18:07:21.914Z,2.02
2023-01-21T18:12:23.793Z,1.91
2023-01-21T18:17:26.064Z,1.76
2023-01-21T18:22:30.514Z,1.78
2023-01-21T18:27:32.427Z,1.67
2023-01-21T18:32:34.200Z,1.57
2023-01-21T18:37:35.961Z,1.65
2023-01-21T18:42:37.796Z,1.61
2023-01-21T18:47:39.596Z,1.50
2023-01-21T18:52:41.433Z,1.52
2023-01-21T18:57:45.317Z,1.57
2023-01-21T19:02:47.413Z,1.53
2023-01-21T19:07:49.067Z,1.49
2023-01-21T19:12:53.105Z,1.37
2023-01-21T19:17:55.901Z,1.24
2023-01-21T19:22:57.538Z,1.18
2023-01-21T19:27:59.722Z,1.16
2023-01-21T19:33:01.661Z,1.17
2023-01-21T19:38:10.053Z,1.32
2023-01-21T19:43:14.230Z,1.32
2023-01-21T19:48:18.716Z,1.37
2023-01-21T19:53:22.363Z,1.30
2023-01-21T19:58:28.554Z,1.24
2023-01-21T20:03:30.716Z,1.28
2023-01-21T20:08:36.356Z,1.35
2023-01-21T20:13:39.470Z,1.42
2023-01-21T20:18:41.686Z,1.49
2023-01-21T20:23:43.978Z,1.50
2023-01-21T20:28:51.548Z,1.55
2023-01-21T20:33:53.409Z,1.57
2023-01-21T20:38:56.006Z,1.53
2023-01-21T20:43:58.013Z,1.55
2023-01-21T20:48:59.982Z,1.63
2023-01-21T20:54:01.970Z,1.64
2023-01-21T20:59:04.669Z,1.66
2023-01-21T21:04:06.550Z,1.67
2023-01-21T21:09:10.962Z,1.65
2023-01-21T21:14:17.643Z,1.64
2023-01-21T21:19:20.070Z,1.63
2023-01-21T21:24:26.108Z,1.66
2023-01-21T21:29:28.713Z,1.73
2023-01-21T21:34:30.736Z,1.77
2023-01-21T21:39:33.190Z,1.84
2023-01-21T21:44:37.213Z,1.82
2023-01-21T21:49:39.026Z,1.78
2023-01-21T21:54:43.941Z,1.84
2023-01-21T21:59:47.413Z,1.84
2023-01-21T22:04:49.443Z,1.80
2023-01-21T22:09:52.158Z,1.79
2023-01-21T22:14:53.989Z,1.76
2023-01-21T22:19:55.691Z,1.76
2023-01-21T22:24:57.462Z,1.79
2023-01-21T22:30:01.362Z,1.78
2023-01-21T22:35:03.790Z,1.78
2023-01-21T22:40:06.440Z,1.82
2023-01-21T22:45:09.007Z,1.81
2023-01-21T22:50:12.069Z,1.84
2023-01-21T22:55:14.015Z,1.84
2023-01-21T23:00:37.720Z,1.85
2023-01-21T23:05:39.520Z,1.87
2023-01-21T23:10:42.670Z,1.89
2023-01-21T23:15:46.164Z,1.93
2023-01-21T23:20:48.672Z,1.97
2023-01-21T23:25:50.652Z,2.06
2023-01-21T23:30:53.911Z,2.06
2023-01-21T23:35:55.825Z,2.07
2023-01-21T23:40:57.794Z,2.13
2023-01-21T23:45:59.562Z,2.14
2023-01-21T23:51:03.992Z,2.15
2023-01-21T23:56:10.557Z,2.09
